Aérodrome :
LOGIN :

S'inscrire | Disclaimer

   EN    FR    IT 

 










Légende :    VFR   VFR Marginal   IFR   IFR Intensif   IFR Très Intensif
Visi : 
Plafond : 
>= 8 km
>= 3000ft
5 à 8 km
1000 à 3000 ft
1500m à 5 km
500 à 1000 ft
800 à 1500m
200 à 500 ft
< 800m
< 200 ft
Symboles :   Orages  Brouillard  Fortes neiges  Fortes précipitations  Vent > 20 kt
SIGMETs :   Divers  Orages  Givrage  Turbulence  Onde Orograph.  Cendres Volcan.






- Altitude de l'aérodrome : 741 ft
- Code IATA : PED


LKPD - Pardubice AB

DERNIER METAR :
  • 201200Z VRB02KT 7000 OVC022 11/08 Q1015 NOSIG RMK WHT WHT

METARs EXPIRÉS :
  • 201100Z 00000KT 7000 OVC028 11/07 Q1016 NOSIG RMK WHT WHT
  • 201000Z VRB02KT 7000 BKN030 BKN190 09/07 Q1017 NOSIG RMK WHT WHT

TAF TAF LKPD
Valide du 20 à 12h jusqu'au 21 à 12h UTC


201100Z 2012/2112 09004KT 9999 BKN030
TEMPO 2022/2106 5000 BR
BECMG 2100/2102 09008KT
PROB30
TEMPO 2102/2106 3000 RA BR BKN014



MET'MAP, la Météo Aéronautique d'un coup d'oeil ! - Copyright ORBIFLY Décembre 2007 - Disclaimer

ORBIFLY MET'MAP TEAM :

Programmation & Développement : Alexandra Zaïnal
Conception & Développement : Baudouin d'Aumeries
Co-Programmation & Développement : Marc-Olivier Méhu
Soutien technique & logistique : Manuel Goepfert

Contact : metmap@orbifly.com




SOURCES & CREDITS :

   NOAA